Time;durP1;ratioP1;P1;durP2;ratioP2;P2;SDS_P1;SDS_P2;PMS_P1;PMS_P2;Temp;Humidity;BMP_temperature;BMP_pressure;BME280_temperature;BME280_humidity;BME280_pressure;Samples;Min_cycle;Max_cycle;Signal;HPM_P1;HPM_P2
2023/07/29 00:00:51;;;;;;;23.02;16.45;;;19.00;99.90;;;;;;5032817;28;20021;-58
2023/07/29 00:03:17;;;;;;;26.63;16.73;;;19.10;99.90;;;;;;5014824;28;20021;-51
2023/07/29 00:05:43;;;;;;;17.95;9.98;;;19.00;99.90;;;;;;5032168;28;20104;-53
2023/07/29 00:08:08;;;;;;;9.48;7.60;;;19.00;99.90;;;;;;5032320;28;20580;-61
2023/07/29 00:10:37;;;;;;;11.65;7.32;;;19.10;99.90;;;;;;5032358;28;20526;-57
2023/07/29 00:13:03;;;;;;;11.43;8.30;;;19.00;99.90;;;;;;5014636;28;20492;-52
2023/07/29 00:15:28;;;;;;;10.55;7.53;;;19.00;99.90;;;;;;5032423;28;20237;-60
2023/07/29 00:17:54;;;;;;;8.18;6.70;;;19.00;99.90;;;;;;5014276;28;20036;-50
2023/07/29 00:20:20;;;;;;;8.50;7.25;;;19.00;99.90;;;;;;5031991;28;20030;-54
2023/07/29 00:22:45;;;;;;;8.13;6.60;;;19.00;99.90;;;;;;5032585;28;20040;-54
2023/07/29 00:25:11;;;;;;;11.30;7.18;;;19.00;99.90;;;;;;5032207;28;20032;-60
2023/07/29 00:27:37;;;;;;;8.15;7.03;;;19.00;99.90;;;;;;5014098;28;20061;-55
2023/07/29 00:30:03;;;;;;;10.27;6.47;;;19.00;99.90;;;;;;5014064;28;20025;-58
2023/07/29 00:32:30;;;;;;;12.40;6.15;;;19.00;99.90;;;;;;5032114;28;20030;-58
2023/07/29 00:34:55;;;;;;;9.05;6.13;;;19.00;99.90;;;;;;5032045;28;20052;-56
2023/07/29 00:37:21;;;;;;;12.10;5.78;;;19.00;99.90;;;;;;5031910;28;20500;-61
2023/07/29 00:39:47;;;;;;;7.70;6.00;;;19.10;99.90;;;;;;5031833;28;20105;-55
2023/07/29 00:42:12;;;;;;;11.43;6.00;;;19.10;99.90;;;;;;5032060;28;20033;-55
2023/07/29 00:44:38;;;;;;;16.50;6.47;;;19.00;99.90;;;;;;5032067;28;20097;-50
2023/07/29 00:47:05;;;;;;;8.85;6.18;;;19.00;99.90;;;;;;5016907;28;20033;-55
2023/07/29 00:49:32;;;;;;;9.82;5.88;;;19.00;99.90;;;;;;5036110;28;20022;-52
2023/07/29 00:51:58;;;;;;;6.47;5.20;;;19.00;99.90;;;;;;5036306;28;20496;-59
2023/07/29 00:54:23;;;;;;;8.65;4.95;;;18.90;99.90;;;;;;5036303;28;20036;-54
2023/07/29 00:56:49;;;;;;;9.65;5.18;;;18.90;99.90;;;;;;5036033;28;20091;-52
2023/07/29 00:59:15;;;;;;;8.05;5.07;;;19.00;99.90;;;;;;5035927;28;20022;-50
2023/07/29 01:01:42;;;;;;;5.90;4.40;;;19.00;99.90;;;;;;5035524;28;20096;-58
2023/07/29 01:04:07;;;;;;;6.07;5.07;;;19.00;99.90;;;;;;5035464;28;20041;-55
2023/07/29 01:07:02;;;;;;;5.72;4.55;;;19.00;99.90;;;;;;5017687;28;20025;-55
2023/07/29 01:09:40;;;;;;;5.80;4.30;;;19.00;99.90;;;;;;5021607;28;20470;-51
2023/07/29 01:12:11;;;;;;;4.53;4.13;;;19.00;99.90;;;;;;5035439;28;20401;-55
2023/07/29 01:14:51;;;;;;;5.50;4.55;;;19.00;99.90;;;;;;5035469;28;20032;-58
2023/07/29 01:17:23;;;;;;;5.78;4.35;;;19.00;99.90;;;;;;5035172;28;20029;-53
2023/07/29 01:20:08;;;;;;;4.65;4.18;;;19.00;99.90;;;;;;5035237;28;20033;-54
2023/07/29 01:22:35;;;;;;;4.83;3.80;;;19.00;99.90;;;;;;5034858;28;20087;-49
2023/07/29 01:25:02;;;;;;;12.05;3.78;;;19.00;99.90;;;;;;5034724;28;20268;-57
2023/07/29 01:27:27;;;;;;;5.00;4.38;;;19.00;99.90;;;;;;5034403;28;20495;-50
2023/07/29 01:29:55;;;;;;;3.75;3.15;;;19.00;99.90;;;;;;5034661;28;20029;-49
2023/07/29 01:32:29;;;;;;;9.85;3.35;;;19.00;99.90;;;;;;5034429;28;20124;-50
2023/07/29 01:35:06;;;;;;;5.93;3.45;;;19.00;99.90;;;;;;5035340;28;20025;-50
2023/07/29 01:37:34;;;;;;;5.18;2.97;;;19.00;99.90;;;;;;5034427;28;20029;-51
2023/07/29 01:40:01;;;;;;;3.72;2.85;;;18.90;99.90;;;;;;5034527;28;20033;-49
2023/07/29 01:42:27;;;;;;;5.35;3.15;;;19.00;99.90;;;;;;5034727;28;20021;-53
2023/07/29 01:44:53;;;;;;;4.32;2.90;;;19.00;99.90;;;;;;5034854;28;20107;-50
2023/07/29 01:47:18;;;;;;;4.38;2.70;;;19.00;99.90;;;;;;5033971;28;20037;-51
2023/07/29 01:49:44;;;;;;;6.68;2.40;;;19.00;99.90;;;;;;5034182;28;20027;-53
2023/07/29 01:52:09;;;;;;;6.75;3.72;;;19.00;99.90;;;;;;5034746;28;20021;-52
2023/07/29 01:54:35;;;;;;;4.85;3.25;;;18.90;99.90;;;;;;5034534;28;20396;-50
2023/07/29 01:57:00;;;;;;;6.82;3.15;;;19.00;99.90;;;;;;5034143;28;20026;-58
2023/07/29 01:59:26;;;;;;;4.70;2.78;;;19.10;99.90;;;;;;5033570;28;20032;-60
2023/07/29 02:01:52;;;;;;;3.40;2.80;;;19.10;99.90;;;;;;5034421;28;20060;-57
2023/07/29 02:04:18;;;;;;;4.00;2.75;;;19.10;99.90;;;;;;5016626;28;20030;-52
2023/07/29 02:06:43;;;;;;;5.55;2.97;;;19.10;99.90;;;;;;5034236;28;20033;-53
2023/07/29 02:09:09;;;;;;;9.38;3.05;;;19.10;99.90;;;;;;5016371;28;20025;-53
2023/07/29 02:11:35;;;;;;;5.43;3.05;;;19.10;99.90;;;;;;5034000;28;20030;-52
2023/07/29 02:14:00;;;;;;;11.65;3.20;;;19.10;99.90;;;;;;5034109;28;20029;-50
2023/07/29 02:16:26;;;;;;;4.82;3.05;;;19.10;99.90;;;;;;5033766;28;20092;-51
2023/07/29 02:18:51;;;;;;;5.72;4.18;;;19.10;99.90;;;;;;5033895;28;20028;-55
2023/07/29 02:21:17;;;;;;;4.32;3.10;;;19.00;99.90;;;;;;5034245;28;20060;-54
2023/07/29 02:23:42;;;;;;;10.38;3.13;;;19.10;99.90;;;;;;5033748;28;20061;-51
2023/07/29 02:26:08;;;;;;;7.40;2.80;;;19.10;99.90;;;;;;5016199;28;20116;-57
2023/07/29 02:28:34;;;;;;;5.18;2.95;;;19.10;99.90;;;;;;5015762;28;20586;-52
2023/07/29 02:31:10;;;;;;;11.38;3.13;;;19.10;99.90;;;;;;5033641;28;20030;-53
2023/07/29 02:33:36;;;;;;;5.60;3.10;;;19.00;99.90;;;;;;5033576;28;20018;-50
2023/07/29 02:36:02;;;;;;;4.63;3.28;;;19.10;99.90;;;;;;5034010;28;20032;-56
2023/07/29 02:38:27;;;;;;;5.03;3.05;;;19.10;99.90;;;;;;5033407;28;20148;-49
2023/07/29 02:40:53;;;;;;;4.40;3.58;;;19.10;99.90;;;;;;5033355;28;20033;-48
2023/07/29 02:43:18;;;;;;;5.95;3.13;;;19.00;99.90;;;;;;5033255;28;20104;-49
2023/07/29 02:45:44;;;;;;;5.32;3.83;;;19.00;99.90;;;;;;5033008;28;20083;-52
2023/07/29 02:48:09;;;;;;;6.13;4.32;;;19.10;99.90;;;;;;5015465;28;20041;-49
2023/07/29 02:50:34;;;;;;;5.55;4.32;;;19.00;99.90;;;;;;5033174;28;20528;-50
2023/07/29 02:53:01;;;;;;;9.55;4.82;;;19.10;99.90;;;;;;5033037;28;20034;-52
2023/07/29 02:55:27;;;;;;;7.85;4.25;;;19.10;99.90;;;;;;5033278;28;20018;-54
2023/07/29 02:57:52;;;;;;;6.07;4.45;;;19.10;99.90;;;;;;5033130;28;20211;-51
2023/07/29 03:00:18;;;;;;;5.38;4.88;;;19.10;99.90;;;;;;5033420;28;20041;-51
2023/07/29 03:02:43;;;;;;;6.57;5.10;;;19.10;99.90;;;;;;5033297;28;20101;-57
2023/07/29 03:05:09;;;;;;;8.60;4.68;;;19.10;99.90;;;;;;5032750;28;20498;-54
2023/07/29 03:07:34;;;;;;;5.13;4.43;;;19.10;99.90;;;;;;5031836;28;20043;-50
2023/07/29 03:10:00;;;;;;;5.45;4.93;;;19.10;99.90;;;;;;5033064;28;20392;-54
2023/07/29 03:12:26;;;;;;;7.72;5.68;;;19.10;99.90;;;;;;5032977;28;20021;-60
2023/07/29 03:14:52;;;;;;;5.10;4.15;;;19.00;99.90;;;;;;5015850;28;20030;-54
2023/07/29 03:17:17;;;;;;;6.03;4.20;;;18.90;99.90;;;;;;5015601;28;20054;-48
2023/07/29 03:19:43;;;;;;;6.18;3.95;;;18.80;99.90;;;;;;5032809;28;20025;-52
2023/07/29 03:22:08;;;;;;;6.53;3.67;;;18.80;99.90;;;;;;5032926;28;20044;-59
2023/07/29 03:24:34;;;;;;;7.28;4.97;;;18.70;99.90;;;;;;5033090;28;20032;-52
2023/07/29 03:26:59;;;;;;;5.25;3.22;;;18.70;99.90;;;;;;5032390;28;20033;-52
2023/07/29 03:29:25;;;;;;;8.82;3.80;;;18.80;99.90;;;;;;5032839;28;20108;-58
2023/07/29 03:31:51;;;;;;;6.28;4.40;;;18.70;99.90;;;;;;5033387;28;20026;-56
2023/07/29 03:34:16;;;;;;;13.13;4.13;;;18.70;99.90;;;;;;5034439;28;20021;-49
2023/07/29 03:36:42;;;;;;;5.70;3.53;;;18.70;99.90;;;;;;5033557;28;20021;-57
2023/07/29 03:39:07;;;;;;;4.07;3.20;;;18.70;99.90;;;;;;5032661;28;20151;-57
2023/07/29 03:41:33;;;;;;;5.35;4.22;;;18.60;99.90;;;;;;5032678;28;20492;-54
2023/07/29 03:43:59;;;;;;;5.63;3.63;;;18.60;99.90;;;;;;5032874;28;20456;-54
2023/07/29 03:46:25;;;;;;;11.52;3.65;;;18.60;99.90;;;;;;5032286;28;20060;-59
2023/07/29 03:48:50;;;;;;;4.25;3.70;;;18.60;99.90;;;;;;5032279;28;20079;-50
2023/07/29 03:51:16;;;;;;;5.82;3.60;;;18.50;99.90;;;;;;5032397;28;20029;-54
2023/07/29 03:53:42;;;;;;;26.08;4.15;;;18.50;99.90;;;;;;5032347;28;20504;-59
2023/07/29 03:56:08;;;;;;;4.15;3.65;;;18.50;99.90;;;;;;5032500;28;20033;-55
2023/07/29 03:58:33;;;;;;;8.82;3.67;;;18.70;99.90;;;;;;5014527;28;20032;-51
2023/07/29 04:00:59;;;;;;;4.40;3.88;;;18.40;99.90;;;;;;5014825;28;20129;-51
2023/07/29 04:03:25;;;;;;;7.88;3.88;;;18.50;99.90;;;;;;5032391;28;20025;-57
2023/07/29 04:05:51;;;;;;;6.72;3.78;;;18.50;99.90;;;;;;5014612;28;20072;-51
2023/07/29 04:08:16;;;;;;;9.45;4.70;;;18.50;99.90;;;;;;5014143;28;20065;-52
2023/07/29 04:10:42;;;;;;;5.68;3.60;;;18.50;99.90;;;;;;5031992;28;20100;-58
2023/07/29 04:13:08;;;;;;;8.93;3.70;;;18.50;99.90;;;;;;5032258;28;20071;-49
2023/07/29 04:15:33;;;;;;;10.30;4.32;;;18.40;99.90;;;;;;5032320;28;20037;-54
2023/07/29 04:17:59;;;;;;;6.90;4.45;;;18.50;99.90;;;;;;5031932;28;20488;-59
2023/07/29 04:20:24;;;;;;;8.38;4.03;;;18.50;99.90;;;;;;5031917;28;20748;-49
2023/07/29 04:22:50;;;;;;;7.03;4.05;;;18.50;99.90;;;;;;5014352;28;20033;-51
2023/07/29 04:25:16;;;;;;;8.25;4.50;;;18.40;99.90;;;;;;5032567;28;20035;-50
2023/07/29 04:27:41;;;;;;;5.30;3.53;;;18.40;99.90;;;;;;5032413;28;20096;-49
2023/07/29 04:30:07;;;;;;;6.35;4.63;;;18.50;99.90;;;;;;5034606;28;20029;-49
2023/07/29 04:32:33;;;;;;;5.78;3.30;;;18.50;99.90;;;;;;5015940;28;20496;-50
2023/07/29 04:34:58;;;;;;;4.55;3.33;;;18.50;99.90;;;;;;5032459;28;20056;-49
2023/07/29 04:37:24;;;;;;;5.00;3.30;;;18.40;99.90;;;;;;5014417;28;20546;-51
2023/07/29 04:39:49;;;;;;;3.47;2.88;;;18.40;99.90;;;;;;5031550;28;20504;-52
2023/07/29 04:42:15;;;;;;;6.05;3.40;;;18.50;99.90;;;;;;5031433;28;20025;-50
2023/07/29 04:44:41;;;;;;;9.25;3.45;;;18.50;99.90;;;;;;5031496;28;20028;-51
2023/07/29 04:47:07;;;;;;;7.82;4.20;;;18.70;99.90;;;;;;5013085;28;20021;-50
2023/07/29 04:49:32;;;;;;;3.65;3.35;;;18.60;99.90;;;;;;5031131;28;20028;-51
2023/07/29 04:51:58;;;;;;;3.35;2.92;;;18.60;99.90;;;;;;5031284;28;20037;-52
2023/07/29 04:54:23;;;;;;;5.80;4.13;;;18.60;99.90;;;;;;5031397;28;20086;-48
2023/07/29 04:56:49;;;;;;;7.07;3.40;;;18.90;99.90;;;;;;5013867;28;20438;-50
2023/07/29 04:59:14;;;;;;;5.95;3.67;;;18.70;99.90;;;;;;5013504;28;20030;-51
2023/07/29 05:01:42;;;;;;;5.65;4.07;;;18.70;99.90;;;;;;5031263;28;20103;-50
2023/07/29 05:04:07;;;;;;;4.57;3.20;;;18.80;99.90;;;;;;5031161;28;20025;-50
2023/07/29 05:06:33;;;;;;;12.45;4.05;;;18.80;99.90;;;;;;5031364;28;20025;-51
2023/07/29 05:09:11;;;;;;;5.18;3.45;;;18.90;99.90;;;;;;5013183;28;20032;-50
2023/07/29 05:11:37;;;;;;;6.30;3.38;;;19.00;99.90;;;;;;5031374;28;20017;-50
2023/07/29 05:14:04;;;;;;;4.90;3.13;;;19.10;99.90;;;;;;5031197;28;20072;-50
2023/07/29 05:16:30;;;;;;;5.68;3.97;;;19.20;99.90;;;;;;5031131;28;20454;-49
2023/07/29 05:18:55;;;;;;;6.40;3.75;;;19.30;99.90;;;;;;5030891;28;20026;-48
2023/07/29 05:21:21;;;;;;;4.93;3.22;;;19.30;99.90;;;;;;5013707;28;20025;-50
2023/07/29 05:23:46;;;;;;;5.22;3.47;;;19.40;99.90;;;;;;5013236;28;20033;-49
2023/07/29 05:26:12;;;;;;;3.90;3.35;;;19.60;99.90;;;;;;5031139;28;20029;-52
2023/07/29 05:28:37;;;;;;;9.68;3.40;;;19.90;99.90;;;;;;5013210;28;20107;-49
2023/07/29 05:31:03;;;;;;;3.72;3.25;;;19.90;99.90;;;;;;5031095;28;20022;-49
2023/07/29 05:33:28;;;;;;;7.82;3.33;;;20.10;99.90;;;;;;5032473;28;20029;-50
2023/07/29 05:35:54;;;;;;;8.82;3.30;;;20.20;99.90;;;;;;5034662;28;20044;-51
2023/07/29 05:38:20;;;;;;;4.38;3.13;;;20.10;99.90;;;;;;5034433;28;20112;-53
2023/07/29 05:40:48;;;;;;;6.68;3.67;;;20.00;99.90;;;;;;5034580;28;20064;-49
2023/07/29 05:43:14;;;;;;;4.25;3.30;;;19.90;99.90;;;;;;5034361;28;20503;-49
2023/07/29 05:45:40;;;;;;;9.23;4.03;;;19.70;99.90;;;;;;5034212;28;20033;-49
2023/07/29 05:48:05;;;;;;;5.65;3.72;;;19.60;99.90;;;;;;5016224;28;20028;-53
2023/07/29 05:50:31;;;;;;;11.98;3.55;;;19.50;99.90;;;;;;5034374;28;20435;-51
2023/07/29 05:52:56;;;;;;;6.38;4.20;;;19.40;99.90;;;;;;5034171;28;20392;-53
2023/07/29 05:55:22;;;;;;;4.80;3.58;;;19.20;99.90;;;;;;5012297;28;20048;-49
2023/07/29 05:57:47;;;;;;;5.93;3.92;;;19.30;99.90;;;;;;5014761;28;20048;-53
2023/07/29 06:00:13;;;;;;;4.28;3.80;;;19.30;99.90;;;;;;5034046;28;20392;-51
2023/07/29 06:02:40;;;;;;;4.18;3.78;;;19.30;99.90;;;;;;5034058;28;20485;-54
2023/07/29 06:05:07;;;;;;;4.53;3.78;;;19.30;99.90;;;;;;5033878;28;20396;-52
2023/07/29 06:07:33;;;;;;;9.63;4.15;;;19.30;99.90;;;;;;5033174;28;20099;-50
2023/07/29 06:09:59;;;;;;;6.25;3.65;;;19.20;99.90;;;;;;5032517;28;20221;-48
2023/07/29 06:12:25;;;;;;;6.45;3.83;;;19.20;99.90;;;;;;5033833;28;20021;-50
2023/07/29 06:14:50;;;;;;;6.35;4.03;;;19.20;99.90;;;;;;5033021;28;20021;-50
2023/07/29 06:17:16;;;;;;;7.43;3.67;;;19.30;99.90;;;;;;5015297;28;20030;-50
2023/07/29 06:19:41;;;;;;;10.23;4.78;;;19.30;99.90;;;;;;5015617;28;20030;-51
2023/07/29 06:22:07;;;;;;;8.52;4.40;;;19.30;99.90;;;;;;5034028;28;20777;-49
2023/07/29 06:24:33;;;;;;;4.97;4.47;;;19.30;99.90;;;;;;5015554;28;20489;-49
2023/07/29 06:26:58;;;;;;;7.63;4.63;;;19.30;99.90;;;;;;5033397;28;20030;-50
2023/07/29 06:29:24;;;;;;;7.38;5.07;;;19.30;99.90;;;;;;5032821;28;20444;-52
2023/07/29 06:31:51;;;;;;;5.72;5.00;;;19.30;99.90;;;;;;5015858;28;20014;-49
2023/07/29 06:34:17;;;;;;;9.77;4.32;;;19.40;99.90;;;;;;5015639;28;20392;-51
2023/07/29 06:36:43;;;;;;;8.60;4.65;;;19.40;99.90;;;;;;4999996;28;20033;-50
2023/07/29 06:39:09;;;;;;;6.32;4.88;;;19.40;99.90;;;;;;5013247;28;20478;-53
2023/07/29 06:41:35;;;;;;;5.10;4.43;;;19.50;99.90;;;;;;4995930;28;20026;-49
2023/07/29 06:44:00;;;;;;;6.40;4.82;;;19.50;99.90;;;;;;5013063;28;20121;-52
2023/07/29 06:46:26;;;;;;;7.18;4.70;;;19.50;99.90;;;;;;5013270;28;20026;-49
2023/07/29 06:48:51;;;;;;;6.38;4.88;;;19.50;99.90;;;;;;5028232;28;20022;-51
2023/07/29 06:51:17;;;;;;;10.35;5.97;;;19.60;99.90;;;;;;5033676;28;20055;-52
2023/07/29 06:53:42;;;;;;;8.43;5.30;;;19.50;99.90;;;;;;5032821;28;20026;-50
2023/07/29 06:56:08;;;;;;;6.38;5.18;;;19.40;99.90;;;;;;5015242;28;20024;-54
2023/07/29 06:58:34;;;;;;;8.45;5.90;;;19.40;99.90;;;;;;5032684;28;20025;-51
2023/07/29 07:01:00;;;;;;;12.35;5.57;;;19.30;99.90;;;;;;5014562;28;20120;-51
2023/07/29 07:03:25;;;;;;;8.50;5.47;;;19.50;99.90;;;;;;5032673;28;20057;-49
2023/07/29 07:05:51;;;;;;;12.10;6.00;;;19.50;99.90;;;;;;5032576;28;20091;-50
2023/07/29 07:08:16;;;;;;;10.13;6.18;;;19.30;99.90;;;;;;5031722;28;20034;-48
2023/07/29 07:10:42;;;;;;;9.75;6.57;;;19.30;99.90;;;;;;5015414;28;20465;-49
2023/07/29 07:13:07;;;;;;;7.15;5.75;;;19.30;99.90;;;;;;5033513;28;20069;-53
2023/07/29 07:15:33;;;;;;;6.85;5.75;;;19.20;99.90;;;;;;5033349;28;20378;-53
2023/07/29 07:17:58;;;;;;;10.95;6.25;;;19.20;99.90;;;;;;5034083;28;20025;-57
2023/07/29 07:20:24;;;;;;;10.07;6.40;;;19.20;99.90;;;;;;5035053;28;20041;-53
2023/07/29 07:22:49;;;;;;;12.38;6.20;;;19.20;99.90;;;;;;5032420;28;20040;-53
2023/07/29 07:25:15;;;;;;;10.70;5.80;;;19.20;99.90;;;;;;5032714;28;20025;-53
2023/07/29 07:27:40;;;;;;;9.60;5.05;;;19.20;99.90;;;;;;5033020;28;20449;-55
2023/07/29 07:30:06;;;;;;;6.65;5.43;;;19.20;99.90;;;;;;5036192;28;20037;-54
2023/07/29 07:32:32;;;;;;;10.25;5.13;;;19.30;99.90;;;;;;5016087;28;20025;-53
2023/07/29 07:34:57;;;;;;;7.40;4.88;;;19.30;99.90;;;;;;5034267;28;20531;-50
2023/07/29 07:37:23;;;;;;;8.15;4.97;;;19.30;99.90;;;;;;5033137;28;20026;-51
2023/07/29 07:39:48;;;;;;;6.72;4.45;;;19.30;99.90;;;;;;5032334;28;20037;-54
2023/07/29 07:42:14;;;;;;;5.60;4.00;;;19.30;99.90;;;;;;5032321;28;20096;-54
2023/07/29 07:44:40;;;;;;;7.22;4.25;;;19.30;99.90;;;;;;5032244;28;20030;-52
2023/07/29 07:47:05;;;;;;;6.10;3.00;;;19.40;99.90;;;;;;5032308;28;20052;-51
2023/07/29 07:49:31;;;;;;;4.25;3.40;;;19.40;99.90;;;;;;5031912;28;20025;-55
2023/07/29 07:51:56;;;;;;;4.78;2.90;;;19.40;99.90;;;;;;5032421;28;20108;-52
2023/07/29 07:54:22;;;;;;;4.40;2.60;;;19.30;99.90;;;;;;5032056;28;20025;-50
2023/07/29 07:56:47;;;;;;;3.58;2.40;;;19.30;99.90;;;;;;5031252;28;20481;-54
2023/07/29 07:59:13;;;;;;;1.98;1.88;;;19.40;99.90;;;;;;5013947;28;20455;-53
2023/07/29 08:01:39;;;;;;;3.42;1.85;;;19.40;99.90;;;;;;5031832;28;20032;-53
2023/07/29 08:04:05;;;;;;;1.90;1.80;;;19.40;99.90;;;;;;5031799;28;20032;-53
2023/07/29 08:06:32;;;;;;;2.03;1.70;;;19.40;99.90;;;;;;5031828;28;20385;-54
2023/07/29 08:08:58;;;;;;;5.57;2.13;;;19.40;99.90;;;;;;5031519;28;20033;-54
2023/07/29 08:11:24;;;;;;;1.63;1.50;;;19.50;99.90;;;;;;5031832;28;20022;-56
2023/07/29 08:13:49;;;;;;;4.20;1.38;;;19.50;99.90;;;;;;5032043;28;20508;-53
2023/07/29 08:16:15;;;;;;;5.63;2.10;;;19.80;99.90;;;;;;5031552;28;20022;-51
2023/07/29 08:18:41;;;;;;;2.03;1.48;;;20.40;99.90;;;;;;5013742;28;20036;-54
2023/07/29 08:21:06;;;;;;;1.23;1.13;;;21.50;99.90;;;;;;5031504;28;20420;-52
2023/07/29 08:23:36;;;;;;;2.47;1.00;;;22.70;99.90;;;;;;5031449;28;20033;-53
2023/07/29 08:26:05;;;;;;;1.90;1.40;;;23.40;99.90;;;;;;5013439;28;20036;-52
2023/07/29 08:28:33;;;;;;;0.98;0.93;;;23.80;99.90;;;;;;5031157;28;20025;-50
2023/07/29 08:30:59;;;;;;;0.95;0.95;;;23.80;99.90;;;;;;5031376;28;20497;-50
2023/07/29 08:33:26;;;;;;;1.00;0.88;;;23.60;99.90;;;;;;5013718;28;20022;-55
2023/07/29 08:35:52;;;;;;;0.90;0.90;;;23.50;99.90;;;;;;5031794;28;20049;-51
2023/07/29 08:38:18;;;;;;;1.30;1.20;;;23.20;99.90;;;;;;5031310;28;20147;-48
2023/07/29 08:40:52;;;;;;;3.35;1.08;;;23.10;99.90;;;;;;5031406;28;20040;-51
2023/07/29 08:43:20;;;;;;;0.70;0.70;;;23.10;99.90;;;;;;5013555;28;20125;-51
2023/07/29 08:45:46;;;;;;;0.85;0.73;;;23.00;99.90;;;;;;5031274;28;20100;-49
2023/07/29 08:48:15;;;;;;;0.85;0.85;;;22.70;99.90;;;;;;5031015;28;20104;-53
2023/07/29 08:50:43;;;;;;;1.08;1.08;;;22.80;99.90;;;;;;5031580;28;20354;-51
2023/07/29 08:53:10;;;;;;;2.58;0.80;;;22.40;99.90;;;;;;5013795;28;20397;-54
2023/07/29 08:55:36;;;;;;;1.77;1.13;;;22.40;99.90;;;;;;5031626;28;20017;-53
2023/07/29 08:58:03;;;;;;;1.40;1.13;;;22.50;99.90;;;;;;5031460;28;20033;-52
2023/07/29 09:00:29;;;;;;;3.20;1.42;;;22.50;99.90;;;;;;5013977;28;20413;-49
2023/07/29 09:02:55;;;;;;;3.65;1.15;;;22.70;99.90;;;;;;5031092;28;20021;-49
2023/07/29 09:05:21;;;;;;;2.45;1.02;;;22.90;99.90;;;;;;5031823;28;20025;-55
2023/07/29 09:07:49;;;;;;;4.40;1.50;;;23.00;99.90;;;;;;5033428;28;20112;-53
2023/07/29 09:10:15;;;;;;;2.83;1.20;;;23.10;99.90;;;;;;5035541;28;20017;-56
2023/07/29 09:12:41;;;;;;;0.93;0.93;;;23.20;99.90;;;;;;5017331;28;20025;-53
2023/07/29 09:15:07;;;;;;;3.80;1.30;;;23.30;99.90;;;;;;5034436;28;20481;-57
2023/07/29 09:17:33;;;;;;;3.17;1.20;;;23.40;99.90;;;;;;5034036;28;20423;-53
2023/07/29 09:19:59;;;;;;;1.98;0.95;;;23.50;99.90;;;;;;5016982;28;20030;-54
2023/07/29 09:22:27;;;;;;;3.80;1.10;;;23.70;99.90;;;;;;5034523;28;20048;-53
2023/07/29 09:24:53;;;;;;;1.10;1.00;;;24.20;99.90;;;;;;5017345;28;20515;-54
2023/07/29 09:27:26;;;;;;;2.67;1.20;;;24.40;99.90;;;;;;5035172;28;20033;-53
2023/07/29 09:29:53;;;;;;;1.92;1.00;;;24.50;99.90;;;;;;5034460;28;20024;-54
2023/07/29 09:32:23;;;;;;;2.22;1.08;;;24.60;99.90;;;;;;5016428;28;20551;-55
2023/07/29 09:34:49;;;;;;;2.67;1.10;;;24.70;99.90;;;;;;5016780;28;20041;-50
2023/07/29 09:37:21;;;;;;;1.48;0.85;;;24.60;99.90;;;;;;5034321;28;20037;-53
2023/07/29 09:39:48;;;;;;;2.60;1.08;;;24.30;99.90;;;;;;5016716;28;20096;-52
2023/07/29 09:42:22;;;;;;;2.08;1.23;;;23.90;99.90;;;;;;5034421;28;20032;-50
2023/07/29 09:44:49;;;;;;;1.17;1.05;;;23.70;99.90;;;;;;5034602;28;20442;-50
2023/07/29 09:47:23;;;;;;;1.33;0.93;;;23.40;99.90;;;;;;5031942;28;20529;-55
2023/07/29 09:49:49;;;;;;;0.93;0.90;;;23.30;99.90;;;;;;5015538;28;20502;-48
2023/07/29 09:52:16;;;;;;;9.65;1.58;;;23.30;99.90;;;;;;5034555;28;20034;-49
2023/07/29 09:54:46;;;;;;;2.22;0.90;;;23.60;99.90;;;;;;5034401;28;20029;-54
2023/07/29 09:57:14;;;;;;;0.88;0.88;;;23.80;99.90;;;;;;5034190;28;20024;-51
2023/07/29 09:59:40;;;;;;;2.20;1.10;;;24.30;99.90;;;;;;5033513;28;20018;-52
2023/07/29 10:02:14;;;;;;;0.80;0.80;;;24.60;99.90;;;;;;5009837;28;20032;-51
2023/07/29 10:04:41;;;;;;;1.30;0.95;;;24.70;99.90;;;;;;5033238;28;20124;-49
2023/07/29 10:07:07;;;;;;;3.30;1.10;;;24.70;99.90;;;;;;5033995;28;20034;-51
2023/07/29 10:09:34;;;;;;;20.15;11.55;;;24.70;99.90;;;;;;5034073;28;20412;-55
2023/07/29 10:12:00;;;;;;;21.20;17.85;;;24.90;99.90;;;;;;5033754;28;20049;-55
2023/07/29 10:14:28;;;;;;;5.18;4.50;;;25.00;99.90;;;;;;5032986;28;20029;-54
2023/07/29 10:16:54;;;;;;;2.60;2.40;;;25.10;99.90;;;;;;5015937;28;20436;-55
2023/07/29 10:19:20;;;;;;;1.70;0.93;;;25.30;99.90;;;;;;5032882;28;20017;-53
2023/07/29 10:21:50;;;;;;;3.65;0.90;;;25.50;99.90;;;;;;5033213;28;20029;-51
2023/07/29 10:24:18;;;;;;;5.57;1.88;;;25.40;99.90;;;;;;5015454;28;20021;-53
2023/07/29 10:26:47;;;;;;;1.10;1.00;;;25.30;99.90;;;;;;5015244;28;20025;-56
2023/07/29 10:29:14;;;;;;;1.00;1.00;;;25.00;99.90;;;;;;5013487;28;20072;-57
2023/07/29 10:31:43;;;;;;;1.23;1.10;;;25.00;99.90;;;;;;5003028;28;20112;-55
2023/07/29 10:34:09;;;;;;;1.77;1.00;;;25.10;99.90;;;;;;5033385;28;20031;-52
2023/07/29 10:36:36;;;;;;;1.23;0.98;;;25.00;99.90;;;;;;5032836;28;20030;-48
2023/07/29 10:39:01;;;;;;;1.08;0.90;;;25.20;99.90;;;;;;5032589;28;20087;-48
2023/07/29 10:41:59;;;;;;;1.02;1.02;;;25.40;99.90;;;;;;5033035;28;20428;-52
2023/07/29 10:44:41;;;;;;;1.00;1.00;;;25.50;99.90;;;;;;5024572;28;20025;-49
2023/07/29 10:47:32;;;;;;;1.63;1.20;;;25.60;99.90;;;;;;5033234;28;20022;-51
2023/07/29 10:49:59;;;;;;;1.15;1.00;;;25.60;99.90;;;;;;5013725;28;20026;-52
2023/07/29 10:52:39;;;;;;;0.95;0.90;;;25.40;99.90;;;;;;4995507;28;20026;-56
2023/07/29 10:55:26;;;;;;;5.45;1.10;;;25.40;99.90;;;;;;4995749;28;20025;-52
2023/07/29 10:58:03;;;;;;;3.08;1.10;;;25.20;99.90;;;;;;5011260;28;20060;-52
2023/07/29 11:00:32;;;;;;;1.63;1.17;;;25.00;99.90;;;;;;5033120;28;20041;-53
2023/07/29 11:03:02;;;;;;;1.80;1.20;;;24.70;99.90;;;;;;5015108;28;20041;-54
2023/07/29 11:05:45;;;;;;;1.08;1.00;;;24.60;99.90;;;;;;5015591;28;20021;-55
2023/07/29 11:08:31;;;;;;;1.25;1.10;;;24.60;99.90;;;;;;5032592;28;20063;-54
2023/07/29 11:11:06;;;;;;;;;;;24.60;99.90;;;;;;5033337;28;20025;-54
2023/07/29 11:13:33;;;;;;;;;;;24.70;99.90;;;;;;5015488;28;19909;-52
2023/07/29 11:15:59;;;;;;;2.22;1.92;;;24.80;99.90;;;;;;5032264;28;19905;-51
2023/07/29 11:18:30;;;;;;;2.10;1.40;;;24.90;99.90;;;;;;5031782;28;20025;-54
2023/07/29 11:20:56;;;;;;;1.38;1.10;;;25.00;99.90;;;;;;5032695;28;20108;-55
2023/07/29 11:23:35;;;;;;;1.50;1.35;;;25.10;99.90;;;;;;5014291;28;20108;-52
2023/07/29 11:26:01;;;;;;;2.92;1.23;;;25.30;99.90;;;;;;5032399;28;20049;-53
2023/07/29 11:28:27;;;;;;;2.58;1.30;;;25.30;99.90;;;;;;5031823;28;20033;-56
2023/07/29 11:30:57;;;;;;;3.90;1.00;;;25.50;99.90;;;;;;5030899;28;20025;-53
2023/07/29 11:33:25;;;;;;;2.65;0.90;;;25.50;99.90;;;;;;5031921;28;20013;-56
2023/07/29 11:35:51;;;;;;;1.35;1.25;;;25.60;99.90;;;;;;5031216;28;20028;-55
2023/07/29 11:38:21;;;;;;;1.30;1.20;;;25.60;99.90;;;;;;5014296;28;20033;-54
2023/07/29 11:41:03;;;;;;;3.17;1.33;;;25.70;99.90;;;;;;5013240;28;20116;-52
2023/07/29 11:43:28;;;;;;;1.25;1.13;;;25.60;99.90;;;;;;5032159;28;20068;-56
2023/07/29 11:45:54;;;;;;;1.20;1.10;;;25.90;99.90;;;;;;5032019;28;20029;-53
2023/07/29 11:48:33;;;;;;;1.30;1.20;;;26.00;99.90;;;;;;5013895;28;20370;-52
2023/07/29 11:50:59;;;;;;;1.10;1.05;;;25.80;99.90;;;;;;5032014;28;20026;-56
2023/07/29 11:53:31;;;;;;;3.60;0.95;;;25.70;99.90;;;;;;5031604;28;20071;-56
2023/07/29 11:55:57;;;;;;;1.63;1.50;;;25.70;99.90;;;;;;5014140;28;20041;-54
2023/07/29 11:58:23;;;;;;;1.15;1.15;;;25.80;99.90;;;;;;5031854;28;20045;-53
2023/07/29 12:00:49;;;;;;;2.55;1.20;;;25.90;99.90;;;;;;5031913;28;20038;-56
2023/07/29 12:03:17;;;;;;;2.50;1.92;;;25.90;99.90;;;;;;5031739;28;20024;-54
2023/07/29 12:05:43;;;;;;;1.17;1.17;;;25.90;99.90;;;;;;5031826;28;20017;-54
2023/07/29 12:08:09;;;;;;;1.40;1.23;;;26.10;99.90;;;;;;5031432;28;20029;-54
2023/07/29 12:10:35;;;;;;;2.25;1.30;;;25.90;99.90;;;;;;5013988;28;20500;-55
2023/07/29 12:13:03;;;;;;;3.53;1.33;;;26.00;99.90;;;;;;5031782;28;20100;-52
2023/07/29 12:15:29;;;;;;;2.33;1.05;;;26.00;99.90;;;;;;5031676;28;20265;-53
2023/07/29 12:17:56;;;;;;;1.75;1.13;;;25.80;99.90;;;;;;5031542;28;20452;-56
2023/07/29 12:20:22;;;;;;;5.85;1.10;;;25.80;99.90;;;;;;5014226;28;20028;-55
2023/07/29 12:22:55;;;;;;;1.45;1.35;;;25.80;99.60;;;;;;5035310;23;20041;-44
2023/07/29 12:25:21;;;;;;;1.20;1.20;;;25.80;99.20;;;;;;5013905;28;20021;-51
2023/07/29 12:27:47;;;;;;;3.95;1.00;;;25.90;99.70;;;;;;5029536;28;20021;-50
2023/07/29 12:30:13;;;;;;;1.05;0.85;;;25.90;99.40;;;;;;5030963;28;20489;-46
2023/07/29 12:32:46;;;;;;;1.67;1.20;;;25.90;99.30;;;;;;5031473;28;20021;-45
2023/07/29 12:35:12;;;;;;;4.00;1.20;;;26.00;99.50;;;;;;5031487;28;20025;-49
2023/07/29 12:37:39;;;;;;;1.23;1.13;;;25.90;99.80;;;;;;5013497;28;20060;-42
2023/07/29 12:40:05;;;;;;;2.63;0.90;;;26.00;98.10;;;;;;5013666;28;20037;-46
2023/07/29 12:42:30;;;;;;;1.42;1.30;;;26.00;98.80;;;;;;5033109;28;20068;-46
2023/07/29 12:44:56;;;;;;;3.17;1.13;;;26.00;98.40;;;;;;5017836;28;20061;-48